Time;durP1;ratioP1;P1;durP2;ratioP2;P2;SDS_P1;SDS_P2;PMS_P1;PMS_P2;Temp;Humidity;BMP_temperature;BMP_pressure;BME280_temperature;BME280_humidity;BME280_pressure;Samples;Min_cycle;Max_cycle;Signal;HPM_P1;HPM_P2
2021/08/02 00:00:19;;;;;;;5.27;3.20;;;12.20;99.90;;;;;;5141242;27;20047;-49
2021/08/02 00:03:08;;;;;;;8.45;3.38;;;12.20;99.90;;;;;;5148915;27;20053;-50
2021/08/02 00:05:38;;;;;;;6.88;3.28;;;12.20;99.90;;;;;;5101397;27;20043;-49
2021/08/02 00:08:04;;;;;;;4.72;3.20;;;12.30;99.90;;;;;;5149486;27;20080;-50
2021/08/02 00:10:33;;;;;;;7.80;3.65;;;12.30;99.90;;;;;;5142911;27;20410;-49
2021/08/02 00:13:13;;;;;;;10.85;4.82;;;12.30;99.90;;;;;;5147974;27;20048;-48
2021/08/02 00:15:39;;;;;;;6.25;3.60;;;12.30;99.90;;;;;;5142580;27;20050;-49
2021/08/02 00:18:07;;;;;;;5.40;3.05;;;12.40;99.90;;;;;;5147538;27;20510;-48
2021/08/02 00:20:34;;;;;;;6.47;3.17;;;12.40;99.90;;;;;;5133440;27;20038;-50
2021/08/02 00:23:07;;;;;;;4.70;3.10;;;12.40;99.90;;;;;;5133006;27;20046;-49
2021/08/02 00:25:34;;;;;;;6.20;2.88;;;12.50;99.90;;;;;;5153639;27;20043;-49
2021/08/02 00:28:02;;;;;;;8.85;3.17;;;12.50;99.90;;;;;;5148805;27;20054;-49
2021/08/02 00:30:29;;;;;;;7.60;2.88;;;12.60;99.90;;;;;;5148159;27;20046;-48
2021/08/02 00:32:58;;;;;;;6.75;3.03;;;12.60;99.90;;;;;;5112940;27;20410;-49
2021/08/02 00:35:24;;;;;;;8.07;3.10;;;12.60;99.90;;;;;;5126616;27;20039;-48
2021/08/02 00:37:59;;;;;;;7.43;3.70;;;12.60;99.90;;;;;;5141251;27;20051;-48
2021/08/02 00:40:40;;;;;;;5.57;2.95;;;12.70;99.90;;;;;;5144007;27;20069;-50
2021/08/02 00:43:24;;;;;;;8.05;2.90;;;12.70;99.90;;;;;;5148925;27;20058;-48
2021/08/02 00:45:52;;;;;;;7.40;3.30;;;12.70;99.90;;;;;;5145154;27;20715;-50
2021/08/02 00:48:26;;;;;;;8.80;3.13;;;12.70;99.90;;;;;;5132364;27;20563;-48
2021/08/02 00:50:52;;;;;;;6.95;3.63;;;12.70;99.90;;;;;;5114261;27;20072;-49
2021/08/02 00:53:25;;;;;;;6.45;3.03;;;12.70;99.90;;;;;;5153766;27;20840;-48
2021/08/02 00:55:58;;;;;;;4.32;2.95;;;12.80;99.90;;;;;;5148649;27;20081;-48
2021/08/02 00:58:25;;;;;;;;;;;12.80;99.90;;;;;;5147373;27;20073;-48
2021/08/02 01:00:52;;;;;;;7.78;3.75;;;12.80;99.90;;;;;;5129281;27;19923;-49
2021/08/02 01:03:30;;;;;;;8.52;3.33;;;12.80;99.90;;;;;;5147249;27;20051;-50
2021/08/02 01:05:58;;;;;;;5.82;3.10;;;12.80;99.90;;;;;;5148764;27;20535;-49
2021/08/02 01:08:35;;;;;;;7.53;3.80;;;12.80;99.90;;;;;;5110268;27;20043;-50
2021/08/02 01:11:07;;;;;;;7.28;3.42;;;12.90;99.90;;;;;;5145878;27;20117;-51
2021/08/02 01:13:36;;;;;;;5.25;3.03;;;12.90;99.90;;;;;;5111931;27;20384;-53
2021/08/02 01:16:06;;;;;;;7.25;3.83;;;12.90;99.90;;;;;;5146908;27;20127;-49
2021/08/02 01:18:38;;;;;;;6.05;3.13;;;12.90;99.90;;;;;;5147724;27;20510;-49
2021/08/02 01:21:19;;;;;;;6.18;3.83;;;12.90;99.90;;;;;;5128553;27;20054;-49
2021/08/02 01:23:47;;;;;;;6.13;3.20;;;12.90;99.90;;;;;;5148928;27;20046;-50
2021/08/02 01:26:42;;;;;;;6.10;3.40;;;12.90;99.90;;;;;;5151625;27;20384;-47
2021/08/02 01:29:51;;;;;;;5.40;3.17;;;12.90;99.90;;;;;;5149875;27;20761;-49
2021/08/02 01:32:21;;;;;;;9.98;3.70;;;12.90;99.90;;;;;;5138477;27;20130;-49
2021/08/02 01:34:49;;;;;;;8.82;3.88;;;12.90;99.90;;;;;;5150449;27;20043;-51
2021/08/02 01:37:16;;;;;;;7.18;3.78;;;12.90;99.90;;;;;;5151859;27;20043;-50
2021/08/02 01:39:51;;;;;;;6.90;3.75;;;13.00;99.90;;;;;;5151382;27;20153;-49
2021/08/02 01:42:17;;;;;;;11.07;4.05;;;13.00;99.90;;;;;;5149662;27;20721;-50
2021/08/02 01:44:44;;;;;;;7.50;3.28;;;13.00;99.90;;;;;;5150652;27;20050;-48
2021/08/02 01:47:37;;;;;;;9.70;3.53;;;13.00;99.90;;;;;;5133050;27;20468;-50
2021/08/02 01:50:21;;;;;;;7.47;3.28;;;12.90;99.90;;;;;;5152460;27;20153;-49
2021/08/02 01:53:11;;;;;;;6.88;3.83;;;13.00;99.90;;;;;;5135138;27;20039;-50
2021/08/02 01:55:42;;;;;;;9.05;4.07;;;12.90;99.90;;;;;;5120694;27;20126;-49
2021/08/02 01:58:10;;;;;;;8.02;3.72;;;12.90;99.90;;;;;;5151526;27;20562;-48
2021/08/02 02:00:55;;;;;;;7.18;3.80;;;12.90;99.90;;;;;;5146994;27;20103;-50
2021/08/02 02:03:26;;;;;;;7.28;4.15;;;12.80;99.90;;;;;;5108508;27;20495;-49
2021/08/02 02:06:03;;;;;;;9.25;3.85;;;12.80;99.90;;;;;;5147632;27;20042;-49
2021/08/02 02:08:37;;;;;;;7.90;4.38;;;12.70;99.90;;;;;;5135707;27;20042;-49
2021/08/02 02:11:13;;;;;;;7.80;3.67;;;12.70;99.90;;;;;;5123898;27;20039;-47
2021/08/02 02:13:53;;;;;;;7.78;3.95;;;12.60;99.90;;;;;;5151366;27;20057;-48
2021/08/02 02:16:23;;;;;;;8.50;4.00;;;12.60;99.90;;;;;;5126860;27;20194;-51
2021/08/02 02:18:54;;;;;;;8.07;3.80;;;12.60;99.90;;;;;;5133397;27;20054;-48
2021/08/02 02:21:24;;;;;;;7.20;4.07;;;12.60;99.90;;;;;;5150836;27;20046;-48
2021/08/02 02:23:57;;;;;;;12.98;4.03;;;12.50;99.90;;;;;;5143111;27;20042;-49
2021/08/02 02:26:29;;;;;;;5.90;3.70;;;12.40;99.90;;;;;;5133629;27;20051;-48
2021/08/02 02:28:56;;;;;;;9.20;4.22;;;12.40;99.90;;;;;;5132303;27;20068;-48
2021/08/02 02:31:24;;;;;;;8.50;4.07;;;12.40;99.90;;;;;;5147825;27;20417;-48
2021/08/02 02:33:55;;;;;;;7.45;3.63;;;12.40;99.90;;;;;;5150375;27;20171;-49
2021/08/02 02:36:22;;;;;;;7.93;3.70;;;12.40;99.90;;;;;;5146925;27;20119;-50
2021/08/02 02:38:51;;;;;;;8.30;3.75;;;12.40;99.90;;;;;;5121994;27;20398;-49
2021/08/02 02:41:20;;;;;;;8.15;3.55;;;12.30;99.90;;;;;;5116774;27;20521;-48
2021/08/02 02:43:54;;;;;;;6.25;3.90;;;12.30;99.90;;;;;;5149882;27;20046;-51
2021/08/02 02:46:22;;;;;;;8.32;3.47;;;12.40;99.90;;;;;;5149241;27;20058;-49
2021/08/02 02:48:50;;;;;;;6.70;4.30;;;12.40;99.90;;;;;;5114886;27;20042;-48
2021/08/02 02:51:18;;;;;;;11.85;4.15;;;12.40;99.90;;;;;;5131849;27;20146;-50
2021/08/02 02:53:46;;;;;;;6.57;3.65;;;12.40;99.90;;;;;;5127285;27;20694;-49
2021/08/02 02:56:15;;;;;;;5.93;4.10;;;12.30;99.90;;;;;;5112429;27;20051;-47
2021/08/02 02:58:42;;;;;;;6.82;3.75;;;12.30;99.90;;;;;;5115346;27;20043;-50
2021/08/02 03:01:13;;;;;;;6.93;3.50;;;12.30;99.90;;;;;;5146442;27;20046;-48
2021/08/02 03:03:45;;;;;;;7.47;3.40;;;12.30;99.90;;;;;;5114753;27;20133;-49
2021/08/02 03:06:18;;;;;;;9.07;4.22;;;12.20;99.90;;;;;;5127512;27;20383;-49
2021/08/02 03:08:46;;;;;;;9.35;3.60;;;12.20;99.90;;;;;;5129590;27;20498;-49
2021/08/02 03:11:17;;;;;;;7.03;3.67;;;12.20;99.90;;;;;;5131777;27;20043;-49
2021/08/02 03:13:44;;;;;;;6.05;3.80;;;12.20;99.90;;;;;;5111743;27;20055;-48
2021/08/02 03:16:10;;;;;;;7.50;4.20;;;12.10;99.90;;;;;;5148325;27;20042;-48
2021/08/02 03:18:36;;;;;;;9.25;4.30;;;12.10;99.90;;;;;;5146284;27;20035;-50
2021/08/02 03:21:05;;;;;;;9.00;3.75;;;12.10;99.90;;;;;;5148251;27;20051;-49
2021/08/02 03:23:53;;;;;;;7.80;4.50;;;12.10;99.90;;;;;;5148241;27;20134;-48
2021/08/02 03:26:28;;;;;;;7.32;4.63;;;12.00;99.90;;;;;;5113371;27;20055;-48
2021/08/02 03:29:17;;;;;;;8.48;4.97;;;12.00;99.90;;;;;;5147029;27;20041;-50
2021/08/02 03:31:50;;;;;;;7.97;4.50;;;11.90;99.90;;;;;;5065359;28;20105;-48
2021/08/02 03:34:25;;;;;;;6.30;3.83;;;11.90;99.90;;;;;;5061143;28;20060;-48
2021/08/02 03:36:53;;;;;;;11.27;4.18;;;11.90;99.90;;;;;;5063463;28;20056;-48
2021/08/02 03:39:24;;;;;;;7.07;3.85;;;11.80;99.90;;;;;;5052209;28;20472;-49
2021/08/02 03:41:53;;;;;;;8.15;4.43;;;11.80;99.90;;;;;;5063282;28;20550;-50
2021/08/02 03:44:21;;;;;;;11.38;3.92;;;11.80;99.90;;;;;;5035616;28;20100;-51
2021/08/02 03:46:49;;;;;;;8.57;4.22;;;11.80;99.90;;;;;;5064889;28;20097;-51
2021/08/02 03:49:15;;;;;;;9.13;3.67;;;11.80;99.90;;;;;;5043564;28;20547;-49
2021/08/02 03:51:47;;;;;;;8.93;4.00;;;11.80;99.90;;;;;;5054653;28;20045;-48
2021/08/02 03:54:15;;;;;;;5.72;3.53;;;11.80;99.90;;;;;;5065225;28;20811;-49
2021/08/02 03:56:43;;;;;;;7.22;3.90;;;11.80;99.90;;;;;;5064771;28;20137;-49
2021/08/02 03:59:10;;;;;;;10.43;4.20;;;11.80;99.90;;;;;;5062819;28;20195;-49
2021/08/02 04:01:46;;;;;;;10.45;4.05;;;11.70;99.90;;;;;;5064600;28;20163;-48
2021/08/02 04:04:13;;;;;;;5.78;4.15;;;11.70;99.90;;;;;;5063783;28;20136;-48
2021/08/02 04:06:40;;;;;;;9.02;4.25;;;11.70;99.90;;;;;;5069822;28;20056;-49
2021/08/02 04:09:08;;;;;;;9.43;4.78;;;11.70;99.90;;;;;;5115859;27;20073;-47
2021/08/02 04:11:37;;;;;;;10.27;4.70;;;11.70;99.90;;;;;;5148412;27;20053;-48
2021/08/02 04:14:05;;;;;;;8.32;4.25;;;11.70;99.90;;;;;;5144886;27;20078;-49
2021/08/02 04:16:33;;;;;;;8.18;4.38;;;11.70;99.90;;;;;;5151050;27;20039;-48
2021/08/02 04:18:59;;;;;;;9.20;4.68;;;11.70;99.90;;;;;;5148992;27;20046;-50
2021/08/02 04:21:26;;;;;;;7.55;4.32;;;11.70;99.90;;;;;;5137563;27;20084;-48
2021/08/02 04:23:54;;;;;;;7.15;4.03;;;11.70;99.90;;;;;;5138957;27;20042;-49
2021/08/02 04:26:21;;;;;;;9.52;4.43;;;11.70;99.90;;;;;;5149713;27;20123;-49
2021/08/02 04:28:49;;;;;;;7.57;4.13;;;11.70;99.90;;;;;;5130273;27;20046;-48
2021/08/02 04:31:15;;;;;;;9.55;4.50;;;11.70;99.90;;;;;;5127371;27;20054;-47
2021/08/02 04:33:41;;;;;;;7.60;4.25;;;11.70;99.90;;;;;;5148433;27;20091;-49
2021/08/02 04:36:08;;;;;;;10.15;4.72;;;11.70;99.90;;;;;;5146288;27;20051;-47
2021/08/02 04:38:35;;;;;;;8.70;4.57;;;11.70;99.90;;;;;;5112786;27;20135;-51
2021/08/02 04:41:01;;;;;;;9.73;3.88;;;11.70;99.90;;;;;;5145794;27;20057;-49
2021/08/02 04:43:28;;;;;;;10.32;4.78;;;11.70;99.90;;;;;;5145444;27;20049;-48
2021/08/02 04:45:55;;;;;;;8.75;4.20;;;11.70;99.90;;;;;;5142049;27;20071;-50
2021/08/02 04:48:23;;;;;;;9.02;4.43;;;11.70;99.90;;;;;;5122697;27;20046;-50
2021/08/02 04:50:49;;;;;;;8.02;4.57;;;11.80;99.90;;;;;;5140874;27;20050;-47
2021/08/02 04:53:15;;;;;;;12.90;5.20;;;11.80;99.90;;;;;;5127943;27;20042;-48
2021/08/02 04:55:42;;;;;;;6.90;4.50;;;11.90;99.90;;;;;;5146620;27;20062;-49
2021/08/02 04:58:08;;;;;;;11.57;4.43;;;11.90;99.90;;;;;;5143178;27;20076;-48
2021/08/02 05:00:34;;;;;;;7.70;4.65;;;12.00;99.90;;;;;;5144013;27;20046;-48
2021/08/02 05:03:05;;;;;;;11.35;4.95;;;12.30;99.90;;;;;;5140743;27;20070;-50
2021/08/02 05:05:31;;;;;;;9.45;4.95;;;12.50;99.90;;;;;;5142083;27;20051;-49
2021/08/02 05:07:58;;;;;;;6.80;4.07;;;12.70;99.90;;;;;;5147172;27;20047;-49
2021/08/02 05:10:24;;;;;;;9.23;4.10;;;12.90;99.90;;;;;;5148389;27;20984;-49
2021/08/02 05:12:51;;;;;;;9.77;4.25;;;13.10;99.90;;;;;;5144910;27;20054;-50
2021/08/02 05:15:17;;;;;;;6.10;3.60;;;13.20;99.90;;;;;;5143414;27;20086;-50
2021/08/02 05:17:43;;;;;;;11.13;4.05;;;13.20;99.90;;;;;;5129470;27;20042;-55
2021/08/02 05:20:10;;;;;;;7.40;3.63;;;13.20;99.90;;;;;;5151173;27;20514;-51
2021/08/02 05:22:37;;;;;;;6.78;3.70;;;13.40;99.90;;;;;;5144377;27;20058;-54
2021/08/02 05:25:04;;;;;;;10.95;3.90;;;13.50;99.90;;;;;;5145917;27;20715;-56
2021/08/02 05:27:31;;;;;;;6.65;3.65;;;13.60;99.90;;;;;;5145023;27;20398;-55
2021/08/02 05:29:57;;;;;;;9.65;3.42;;;13.70;99.90;;;;;;5148042;27;20043;-52
2021/08/02 05:32:23;;;;;;;8.05;3.17;;;13.70;99.90;;;;;;5147397;27;20043;-55
2021/08/02 05:34:50;;;;;;;8.48;3.70;;;13.80;99.90;;;;;;5145075;27;20558;-56
2021/08/02 05:37:16;;;;;;;8.65;3.30;;;13.90;99.90;;;;;;5144243;27;20068;-55
2021/08/02 05:39:42;;;;;;;7.53;3.08;;;14.00;99.90;;;;;;5146835;27;20526;-54
2021/08/02 05:42:08;;;;;;;7.63;2.97;;;14.10;99.90;;;;;;5127640;27;20038;-55
2021/08/02 05:44:35;;;;;;;7.40;2.63;;;14.40;99.90;;;;;;5117228;28;20059;-52
2021/08/02 05:47:01;;;;;;;9.82;2.67;;;14.70;99.90;;;;;;5110851;28;20071;-55
2021/08/02 05:49:27;;;;;;;5.25;2.13;;;14.90;99.90;;;;;;5112604;28;20046;-50
2021/08/02 05:51:58;;;;;;;7.75;2.50;;;15.00;99.90;;;;;;5105180;28;20432;-56
2021/08/02 05:54:25;;;;;;;12.20;2.80;;;15.10;99.90;;;;;;5103082;28;20083;-55
2021/08/02 05:56:51;;;;;;;6.10;1.98;;;15.00;99.90;;;;;;5100867;28;20517;-54
2021/08/02 05:59:17;;;;;;;8.50;2.75;;;15.00;99.90;;;;;;5102151;28;20048;-55
2021/08/02 06:01:44;;;;;;;8.88;3.33;;;15.10;99.90;;;;;;5107248;28;20046;-55
2021/08/02 06:04:10;;;;;;;9.05;4.05;;;15.50;99.90;;;;;;5096555;28;20598;-55
2021/08/02 06:06:38;;;;;;;8.05;3.97;;;16.00;99.90;;;;;;5105732;28;20063;-51
2021/08/02 06:09:04;;;;;;;4.47;2.47;;;16.50;99.90;;;;;;5111883;28;20040;-55
2021/08/02 06:11:50;;;;;;;15.77;11.43;;;16.90;99.90;;;;;;5104991;28;20048;-54
2021/08/02 06:14:16;;;;;;;6.18;1.88;;;17.10;99.90;;;;;;5106109;27;20047;-55
2021/08/02 06:16:42;;;;;;;10.00;3.95;;;17.30;99.90;;;;;;5105242;28;20047;-55
2021/08/02 06:19:09;;;;;;;9.55;2.88;;;17.40;99.90;;;;;;5109670;28;20079;-56
2021/08/02 06:21:35;;;;;;;6.07;2.85;;;17.40;99.90;;;;;;5109124;28;20134;-55
2021/08/02 06:24:02;;;;;;;22.95;18.85;;;17.50;99.90;;;;;;5114621;27;20127;-56
2021/08/02 06:26:30;;;;;;;7.50;3.20;;;17.70;99.90;;;;;;5105185;28;20148;-55
2021/08/02 06:28:57;;;;;;;7.30;3.00;;;17.80;99.90;;;;;;5110391;28;20044;-56
2021/08/02 06:31:23;;;;;;;10.93;5.47;;;17.90;99.90;;;;;;5094560;28;20066;-55
2021/08/02 06:33:49;;;;;;;7.22;1.83;;;17.90;99.90;;;;;;5098134;28;20414;-53
2021/08/02 06:36:20;;;;;;;9.82;2.38;;;18.20;99.90;;;;;;5110322;28;20392;-56
2021/08/02 06:38:50;;;;;;;11.05;6.85;;;18.30;99.90;;;;;;5105349;28;20758;-55
2021/08/02 06:41:16;;;;;;;7.85;1.77;;;18.40;99.90;;;;;;5099518;28;20051;-57
2021/08/02 06:43:43;;;;;;;6.90;3.33;;;18.30;99.90;;;;;;5107997;28;20096;-56
2021/08/02 06:46:09;;;;;;;6.38;1.92;;;18.40;99.90;;;;;;5122876;27;20111;-55
2021/08/02 06:48:40;;;;;;;6.22;1.70;;;18.30;99.90;;;;;;5104013;27;20062;-55
2021/08/02 06:51:10;;;;;;;28.45;17.98;;;18.00;99.90;;;;;;5114228;27;20555;-53
2021/08/02 06:53:36;;;;;;;8.77;5.90;;;17.90;99.90;;;;;;5100826;27;20043;-56
2021/08/02 06:56:02;;;;;;;7.43;3.45;;;17.80;99.90;;;;;;5112676;27;20051;-56
2021/08/02 06:58:31;;;;;;;6.93;2.22;;;18.00;99.90;;;;;;5115297;27;20044;-56
2021/08/02 07:01:00;;;;;;;10.77;2.20;;;18.40;99.90;;;;;;5112087;27;20051;-51
2021/08/02 07:03:26;;;;;;;8.40;3.53;;;18.70;99.90;;;;;;5105662;27;20052;-58
2021/08/02 07:05:52;;;;;;;7.20;1.80;;;19.00;99.90;;;;;;5112688;27;20074;-56
2021/08/02 07:08:21;;;;;;;4.55;1.30;;;19.20;99.90;;;;;;5108743;27;20109;-56
2021/08/02 07:10:47;;;;;;;10.20;1.60;;;19.40;99.90;;;;;;5107099;27;20055;-56
2021/08/02 07:13:13;;;;;;;9.95;3.08;;;19.80;99.90;;;;;;5115902;27;20051;-56
2021/08/02 07:15:40;;;;;;;4.75;1.00;;;20.00;99.90;;;;;;5106313;27;20067;-56
2021/08/02 07:18:09;;;;;;;5.82;1.58;;;20.10;99.90;;;;;;5116335;27;20039;-56
2021/08/02 07:20:36;;;;;;;5.97;1.45;;;20.10;99.90;;;;;;5120880;27;20563;-57
2021/08/02 07:23:02;;;;;;;18.90;14.43;;;20.30;99.90;;;;;;5115767;27;20050;-57
2021/08/02 07:25:29;;;;;;;5.22;1.67;;;20.50;99.90;;;;;;5115867;27;20054;-56
2021/08/02 07:27:55;;;;;;;11.45;9.10;;;20.70;99.90;;;;;;5112955;27;20050;-55
2021/08/02 07:30:21;;;;;;;9.77;2.42;;;20.60;99.90;;;;;;5115512;27;20062;-57
2021/08/02 07:32:47;;;;;;;11.27;7.57;;;20.80;97.30;;;;;;5120263;27;20051;-57
2021/08/02 07:35:13;;;;;;;6.50;1.35;;;21.00;99.90;;;;;;5114058;27;20116;-56
2021/08/02 07:37:43;;;;;;;4.00;1.58;;;21.00;98.00;;;;;;5101885;27;20798;-56
2021/08/02 07:40:10;;;;;;;4.95;1.40;;;20.90;91.90;;;;;;5092702;27;20058;-54
2021/08/02 07:42:36;;;;;;;20.98;18.33;;;20.80;94.80;;;;;;5107883;27;20044;-57
2021/08/02 07:45:04;;;;;;;6.90;1.77;;;21.40;99.50;;;;;;5113131;27;20100;-57
2021/08/02 07:47:30;;;;;;;5.68;1.30;;;21.10;94.90;;;;;;5149073;27;20043;-51
2021/08/02 07:49:56;;;;;;;6.10;2.42;;;20.60;92.70;;;;;;5146780;27;20047;-54
2021/08/02 07:52:23;;;;;;;15.32;12.13;;;20.20;88.40;;;;;;5111021;27;20049;-55
2021/08/02 07:54:49;;;;;;;9.50;2.92;;;20.10;93.60;;;;;;5129716;27;20038;-56
2021/08/02 07:57:15;;;;;;;4.38;1.42;;;19.70;93.00;;;;;;5147316;27;20077;-54
2021/08/02 07:59:42;;;;;;;5.85;1.65;;;19.60;97.80;;;;;;5146375;27;20039;-56
2021/08/02 08:02:08;;;;;;;6.05;2.28;;;19.40;99.00;;;;;;5130258;27;20497;-56
2021/08/02 08:04:34;;;;;;;6.90;1.42;;;19.40;98.70;;;;;;5147921;27;20043;-55
2021/08/02 08:07:00;;;;;;;4.90;1.88;;;19.60;97.90;;;;;;5148182;27;20057;-52
2021/08/02 08:09:26;;;;;;;7.07;1.77;;;19.60;99.20;;;;;;5146923;27;20552;-55
2021/08/02 08:11:52;;;;;;;5.38;1.52;;;19.50;98.30;;;;;;5141338;27;20039;-53
2021/08/02 08:14:18;;;;;;;5.47;1.20;;;19.30;98.40;;;;;;5147601;27;20046;-53
2021/08/02 08:16:44;;;;;;;5.75;1.48;;;19.30;98.60;;;;;;5148668;27;20451;-51
2021/08/02 08:19:10;;;;;;;8.27;1.70;;;19.00;99.90;;;;;;5110055;27;20818;-54
2021/08/02 08:21:37;;;;;;;50.88;37.92;;;18.80;99.90;;;;;;5130216;27;20452;-53
2021/08/02 08:24:05;;;;;;;17.95;6.57;;;18.90;99.90;;;;;;5147536;27;20046;-54
2021/08/02 08:26:34;;;;;;;5.38;1.33;;;19.00;99.90;;;;;;5148770;27;20046;-55
2021/08/02 08:29:03;;;;;;;10.25;5.07;;;19.20;99.90;;;;;;5148619;27;20055;-56
2021/08/02 08:31:29;;;;;;;10.05;5.10;;;19.80;99.90;;;;;;5144520;27;20049;-55
2021/08/02 08:33:56;;;;;;;7.03;1.42;;;19.80;99.90;;;;;;5111800;27;20051;-55
2021/08/02 08:36:24;;;;;;;7.30;2.80;;;19.50;99.90;;;;;;5147405;27;20046;-55
2021/08/02 08:38:50;;;;;;;7.07;2.13;;;19.50;98.30;;;;;;5148055;27;20326;-54
2021/08/02 08:41:19;;;;;;;8.07;2.53;;;19.70;99.30;;;;;;5128544;27;20039;-56
2021/08/02 08:43:53;;;;;;;5.03;2.53;;;20.60;97.60;;;;;;5145166;27;20045;-51
2021/08/02 08:46:20;;;;;;;12.07;8.63;;;21.20;93.40;;;;;;5108777;27;20146;-55
2021/08/02 08:48:50;;;;;;;5.97;1.60;;;21.50;92.70;;;;;;5145514;27;20050;-56
2021/08/02 08:51:24;;;;;;;6.40;1.80;;;21.90;83.60;;;;;;5148593;27;20599;-56
2021/08/02 08:53:52;;;;;;;5.65;3.10;;;22.00;81.00;;;;;;5145024;27;20035;-54
2021/08/02 08:56:19;;;;;;;3.63;1.13;;;22.30;83.60;;;;;;5145244;27;20042;-55
2021/08/02 08:58:45;;;;;;;4.47;1.48;;;22.20;78.40;;;;;;5128283;27;20049;-53
2021/08/02 09:01:12;;;;;;;3.15;0.85;;;22.20;78.90;;;;;;5129264;27;20042;-54
2021/08/02 09:03:50;;;;;;;4.75;1.75;;;21.90;74.20;;;;;;5129272;27;20055;-54
2021/08/02 09:06:22;;;;;;;5.43;2.65;;;21.90;73.70;;;;;;5146223;27;20255;-55
2021/08/02 09:08:49;;;;;;;2.63;0.88;;;21.50;74.20;;;;;;5130076;27;20099;-54
2021/08/02 09:11:21;;;;;;;6.03;1.40;;;21.00;75.40;;;;;;5149677;27;20165;-52
2021/08/02 09:13:53;;;;;;;5.43;1.25;;;21.00;78.80;;;;;;5149320;27;20054;-55
2021/08/02 09:16:27;;;;;;;5.57;1.50;;;20.80;80.60;;;;;;5045358;27;20045;-55
2021/08/02 09:19:05;;;;;;;5.30;1.20;;;21.60;79.90;;;;;;5093496;28;20050;-54
2021/08/02 09:21:54;;;;;;;5.18;1.10;;;22.00;75.80;;;;;;5094421;28;20074;-54
2021/08/02 09:24:31;;;;;;;5.50;1.55;;;23.00;73.60;;;;;;5105789;28;20626;-57
2021/08/02 09:26:58;;;;;;;4.65;1.10;;;23.40;71.40;;;;;;5104071;28;20054;-57
2021/08/02 09:29:34;;;;;;;3.75;0.85;;;23.80;68.80;;;;;;5106290;28;20470;-54
2021/08/02 09:32:13;;;;;;;5.95;3.28;;;23.80;68.10;;;;;;5105530;28;20047;-55
2021/08/02 09:34:48;;;;;;;3.55;1.13;;;22.90;66.80;;;;;;5105251;28;20043;-55
2021/08/02 09:37:26;;;;;;;9.75;1.98;;;22.40;69.60;;;;;;5104969;28;20055;-57
2021/08/02 09:40:03;;;;;;;22.05;17.17;;;21.90;68.10;;;;;;5072372;28;20036;-57
2021/08/02 09:42:35;;;;;;;16.95;13.10;;;21.60;71.60;;;;;;5107150;28;20480;-59
2021/08/02 09:45:05;;;;;;;7.45;3.47;;;21.50;72.40;;;;;;5090320;28;20056;-59
2021/08/02 09:47:34;;;;;;;3.22;1.30;;;21.50;71.30;;;;;;5087202;28;20443;-57
2021/08/02 09:50:05;;;;;;;3.60;1.17;;;21.30;69.20;;;;;;5109164;28;20054;-58
2021/08/02 09:52:32;;;;;;;3.30;1.00;;;21.60;70.60;;;;;;5108705;28;20471;-58
2021/08/02 09:55:05;;;;;;;2.97;0.98;;;21.60;68.20;;;;;;5089608;28;20134;-53
2021/08/02 09:57:50;;;;;;;6.03;1.75;;;22.00;67.80;;;;;;5106653;28;20083;-53
2021/08/02 10:00:33;;;;;;;13.05;10.23;;;22.40;68.00;;;;;;5115207;28;20051;-56
2021/08/02 10:03:02;;;;;;;7.43;4.57;;;23.10;66.50;;;;;;5110525;28;20047;-56
2021/08/02 10:05:37;;;;;;;6.25;1.35;;;23.30;66.60;;;;;;5109745;28;20058;-56
2021/08/02 10:08:07;;;;;;;3.95;1.02;;;23.20;63.90;;;;;;5108627;28;20146;-55
2021/08/02 10:10:37;;;;;;;4.13;1.83;;;22.80;64.50;;;;;;5106893;28;20565;-55
2021/08/02 10:13:07;;;;;;;;;;;21.90;66.50;;;;;;5110437;28;20127;-54
2021/08/02 10:15:38;;;;;;;8.27;1.75;;;21.30;66.70;;;;;;5112028;28;20391;-54
2021/08/02 10:18:18;;;;;;;2.55;1.05;;;21.20;69.70;;;;;;5091557;28;20069;-55
2021/08/02 10:20:47;;;;;;;4.07;1.50;;;20.60;71.30;;;;;;5108131;28;20546;-55
2021/08/02 10:23:34;;;;;;;5.22;2.22;;;20.40;75.70;;;;;;5112341;28;20043;-53
2021/08/02 10:26:28;;;;;;;5.93;2.35;;;20.30;80.00;;;;;;5108011;28;20051;-54
2021/08/02 10:29:03;;;;;;;5.05;0.90;;;20.00;81.90;;;;;;5100021;28;20052;-52
2021/08/02 10:32:07;;;;;;;3.22;1.73;;;19.90;85.00;;;;;;5115677;28;20088;-54
2021/08/02 10:34:49;;;;;;;8.05;3.97;;;19.70;91.70;;;;;;5107032;28;20092;-55
2021/08/02 10:37:27;;;;;;;6.88;2.05;;;20.00;94.90;;;;;;5109953;28;20130;-53
2021/08/02 10:40:09;;;;;;;4.20;1.17;;;20.10;92.90;;;;;;5109406;28;20058;-51
2021/08/02 10:42:49;;;;;;;4.30;0.90;;;20.50;92.60;;;;;;5107769;28;20470;-47
2021/08/02 10:45:32;;;;;;;4.78;0.85;;;20.60;90.00;;;;;;5110350;28;20056;-51
2021/08/02 10:48:04;;;;;;;2.58;0.98;;;21.00;90.10;;;;;;5085459;28;20051;-46
2021/08/02 10:50:38;;;;;;;3.80;1.08;;;21.00;83.40;;;;;;5108629;28;20043;-50
2021/08/02 10:53:18;;;;;;;5.25;1.85;;;21.20;78.50;;;;;;5091255;28;20056;-49
2021/08/02 10:55:54;;;;;;;3.28;1.10;;;21.70;76.20;;;;;;5110297;28;20503;-47
2021/08/02 10:58:34;;;;;;;3.50;0.82;;;22.20;71.00;;;;;;5108410;28;20047;-44
2021/08/02 11:01:04;;;;;;;3.75;1.00;;;22.10;68.00;;;;;;5106125;28;20074;-46
2021/08/02 11:03:39;;;;;;;1.95;0.82;;;22.30;67.90;;;;;;5105622;28;20518;-47
2021/08/02 11:06:17;;;;;;;3.15;0.95;;;22.50;67.90;;;;;;5109047;28;20054;-47
2021/08/02 11:08:51;;;;;;;3.08;0.80;;;23.10;66.10;;;;;;5113678;28;20043;-47
2021/08/02 11:11:19;;;;;;;2.65;0.60;;;23.20;65.90;;;;;;5111028;28;20051;-50
2021/08/02 11:14:03;;;;;;;4.05;0.80;;;23.20;64.00;;;;;;5087915;28;20055;-49
2021/08/02 11:16:49;;;;;;;3.67;1.02;;;23.50;60.10;;;;;;5091543;28;20039;-48
2021/08/02 11:19:20;;;;;;;4.28;1.00;;;23.40;59.80;;;;;;5109725;28;20412;-48
2021/08/02 11:22:10;;;;;;;5.05;0.85;;;22.70;58.50;;;;;;5074036;28;20066;-49
2021/08/02 11:24:51;;;;;;;5.78;1.20;;;23.00;59.70;;;;;;5107234;28;20100;-48
2021/08/02 11:27:22;;;;;;;4.97;0.77;;;22.60;63.00;;;;;;5107178;28;20076;-49
2021/08/02 11:29:51;;;;;;;3.13;0.65;;;22.40;66.20;;;;;;5101931;28;20131;-47
2021/08/02 11:32:21;;;;;;;4.10;1.00;;;22.10;65.20;;;;;;5097328;28;20043;-50
2021/08/02 11:34:59;;;;;;;2.15;0.50;;;22.30;65.70;;;;;;5106657;28;20067;-46
2021/08/02 11:37:30;;;;;;;2.92;0.98;;;22.90;66.60;;;;;;5106414;28;20047;-47
2021/08/02 11:40:08;;;;;;;3.10;0.60;;;22.50;64.00;;;;;;5087075;28;20067;-48
2021/08/02 11:42:37;;;;;;;1.77;0.80;;;22.60;62.60;;;;;;5082514;28;20050;-48
2021/08/02 11:45:20;;;;;;;2.20;0.43;;;22.40;64.80;;;;;;5111262;28;20058;-50
2021/08/02 11:47:58;;;;;;;9.93;6.28;;;21.90;66.60;;;;;;5089297;28;20099;-48
2021/08/02 11:50:28;;;;;;;7.03;3.30;;;22.10;67.70;;;;;;5072992;28;20079;-49
2021/08/02 11:53:00;;;;;;;3.80;1.35;;;22.20;67.80;;;;;;5087507;28;20500;-50
2021/08/02 11:55:27;;;;;;;6.55;4.93;;;22.30;68.70;;;;;;5088175;28;20054;-50
2021/08/02 11:58:01;;;;;;;5.20;2.28;;;22.00;68.80;;;;;;5106301;28;20046;-46
2021/08/02 12:00:29;;;;;;;3.13;1.35;;;22.20;70.20;;;;;;5089809;28;20112;-50
2021/08/02 12:03:08;;;;;;;3.33;1.20;;;22.00;70.60;;;;;;5089161;28;20043;-47
2021/08/02 12:05:39;;;;;;;3.13;1.05;;;22.00;67.70;;;;;;5097072;28;20054;-46
2021/08/02 12:08:18;;;;;;;3.28;0.90;;;21.70;69.10;;;;;;5103701;28;20046;-50
2021/08/02 12:11:01;;;;;;;4.13;1.60;;;22.00;70.00;;;;;;5099525;28;20044;-49
2021/08/02 12:13:50;;;;;;;4.75;0.95;;;22.40;70.30;;;;;;5101706;27;20455;-47
2021/08/02 12:16:30;;;;;;;4.63;0.98;;;22.50;73.60;;;;;;5103074;28;20689;-49
2021/08/02 12:19:09;;;;;;;8.82;7.45;;;22.60;72.40;;;;;;5103420;28;20074;-49
2021/08/02 12:21:38;;;;;;;5.15;1.98;;;22.60;69.20;;;;;;5106545;28;20122;-47
2021/08/02 12:24:13;;;;;;;3.42;1.00;;;23.20;69.30;;;;;;5107594;28;20044;-47
2021/08/02 12:26:53;;;;;;;4.10;1.45;;;23.90;66.20;;;;;;5107894;28;20134;-48
2021/08/02 12:29:27;;;;;;;3.30;1.00;;;24.10;66.20;;;;;;5108993;28;20089;-46
2021/08/02 12:32:04;;;;;;;3.67;0.88;;;24.20;63.10;;;;;;5107597;28;20040;-48
2021/08/02 12:34:30;;;;;;;5.93;1.15;;;24.70;63.00;;;;;;5104651;28;20052;-49
2021/08/02 12:36:58;;;;;;;4.40;2.83;;;25.20;61.50;;;;;;5107139;28;20111;-47
2021/08/02 12:39:27;;;;;;;3.40;1.38;;;25.70;59.40;;;;;;5093170;28;20043;-47
2021/08/02 12:41:57;;;;;;;5.63;2.90;;;25.70;56.70;;;;;;5049244;28;20087;-49
2021/08/02 12:44:24;;;;;;;17.90;16.10;;;25.60;54.70;;;;;;5088590;28;20051;-48
2021/08/02 12:46:50;;;;;;;3.58;1.30;;;25.20;57.10;;;;;;5087438;28;20063;-50
2021/08/02 12:49:16;;;;;;;18.20;16.35;;;25.10;56.10;;;;;;5102076;28;20145;-49
2021/08/02 12:51:44;;;;;;;6.07;2.83;;;25.10;56.80;;;;;;5108456;28;20043;-46
2021/08/02 12:54:10;;;;;;;4.30;1.52;;;24.90;56.60;;;;;;5108146;28;20108;-51
2021/08/02 12:56:37;;;;;;;3.55;1.25;;;24.90;56.80;;;;;;5093333;28;20055;-48
2021/08/02 12:59:03;;;;;;;4.03;1.27;;;24.30;58.10;;;;;;5106209;28;20053;-48
2021/08/02 13:01:29;;;;;;;3.40;1.65;;;24.00;58.30;;;;;;5107694;28;20051;-47
2021/08/02 13:03:56;;;;;;;11.43;9.98;;;23.70;59.50;;;;;;5095136;28;20078;-47